createdAt,value
2018-04-14T03:32:33.725Z,99.90
2018-04-14T03:35:07.414Z,99.90
2018-04-14T03:37:41.211Z,99.90
2018-04-14T03:40:15.820Z,99.90
2018-04-14T03:42:50.313Z,99.90
2018-04-14T03:45:24.134Z,99.90
2018-04-14T03:47:58.747Z,99.90
2018-04-14T03:50:33.733Z,99.90
2018-04-14T03:53:07.301Z,99.90
2018-04-14T03:55:41.138Z,99.90
2018-04-14T03:58:34.627Z,99.90
2018-04-14T04:01:08.484Z,99.90
2018-04-14T04:03:42.694Z,99.90
2018-04-14T04:06:16.393Z,99.90
2018-04-14T04:08:50.166Z,99.90
2018-04-14T04:11:24.379Z,99.90
2018-04-14T04:13:58.086Z,99.90
2018-04-14T04:16:32.159Z,99.90
2018-04-14T04:19:17.678Z,99.90
2018-04-14T04:22:03.540Z,99.90
2018-04-14T04:24:49.257Z,99.90
2018-04-14T04:27:23.824Z,99.90
2018-04-14T04:29:57.674Z,99.90
2018-04-14T04:32:31.465Z,99.90
2018-04-14T04:35:05.334Z,99.90
2018-04-14T04:37:39.085Z,99.90
2018-04-14T04:40:13.714Z,99.90
2018-04-14T04:42:47.510Z,99.90
2018-04-14T04:45:21.299Z,99.90
2018-04-14T04:47:57.739Z,99.90
2018-04-14T04:50:31.425Z,99.90
2018-04-14T04:53:05.215Z,99.90
2018-04-14T04:55:38.960Z,99.90
2018-04-14T04:58:13.509Z,99.90
2018-04-14T05:00:47.309Z,99.90
2018-04-14T05:03:21.079Z,99.90
2018-04-14T05:05:54.947Z,99.90
2018-04-14T05:08:29.564Z,99.90
2018-04-14T05:11:03.328Z,99.90
2018-04-14T05:13:37.474Z,99.90
2018-04-14T05:16:11.275Z,99.90
2018-04-14T05:18:45.122Z,99.90
2018-04-14T05:21:19.050Z,99.90
2018-04-14T05:23:53.316Z,99.90
2018-04-14T05:26:27.296Z,99.90
2018-04-14T05:29:01.031Z,99.90
2018-04-14T05:31:34.838Z,99.90
2018-04-14T05:34:08.643Z,99.90
2018-04-14T05:36:43.582Z,99.90
2018-04-14T05:39:18.283Z,99.90
2018-04-14T05:41:52.874Z,99.90
2018-04-14T05:44:27.025Z,99.90
2018-04-14T05:47:00.814Z,99.90
2018-04-14T05:49:40.827Z,99.90
2018-04-14T05:52:14.747Z,99.90
2018-04-14T05:54:49.299Z,99.90
2018-04-14T05:57:23.810Z,99.90
2018-04-14T05:59:58.245Z,99.90
2018-04-14T06:02:32.080Z,99.90
2018-04-14T06:05:05.928Z,99.90
2018-04-14T06:07:40.403Z,99.90
2018-04-14T06:10:14.230Z,99.90
2018-04-14T06:12:47.973Z,99.90
2018-04-14T06:15:21.743Z,99.90
2018-04-14T06:17:55.457Z,99.90
2018-04-14T06:20:30.481Z,99.90
2018-04-14T06:23:04.439Z,99.90
2018-04-14T06:25:38.141Z,99.90
2018-04-14T06:28:12.102Z,99.90
2018-04-14T06:30:46.586Z,99.90
2018-04-14T06:33:20.340Z,99.90
2018-04-14T06:35:54.904Z,99.90
2018-04-14T06:38:29.059Z,99.90
2018-04-14T06:41:02.809Z,99.90
2018-04-14T06:43:36.661Z,99.90
2018-04-14T06:46:11.271Z,99.90
2018-04-14T06:48:45.106Z,99.90
2018-04-14T06:51:19.687Z,99.90
2018-04-14T06:53:53.535Z,99.90
2018-04-14T06:56:28.128Z,99.90
2018-04-14T06:59:01.871Z,99.90
2018-04-14T07:01:38.111Z,99.90
2018-04-14T07:04:11.923Z,99.90
2018-04-14T07:06:47.582Z,99.90
2018-04-14T07:09:22.185Z,99.90
2018-04-14T07:11:55.831Z,99.90
2018-04-14T07:14:29.608Z,99.90
2018-04-14T07:17:05.371Z,99.90
2018-04-14T07:19:39.960Z,99.90
2018-04-14T07:22:13.875Z,99.60
2018-04-14T07:24:47.777Z,99.40
2018-04-14T07:27:22.527Z,99.10
2018-04-14T07:29:56.118Z,99.10
2018-04-14T07:32:29.955Z,99.00
2018-04-14T07:35:04.150Z,98.80
2018-04-14T07:37:38.061Z,98.40
2018-04-14T07:40:11.806Z,98.30
2018-04-14T07:42:46.469Z,97.90
2018-04-14T07:45:20.111Z,97.80
2018-04-14T07:47:53.980Z,98.00
2018-04-14T07:50:28.595Z,98.00
2018-04-14T07:53:02.338Z,98.00
2018-04-14T07:55:36.219Z,97.50
2018-04-14T07:58:10.059Z,97.50
2018-04-14T08:00:44.633Z,97.10
2018-04-14T08:03:18.518Z,97.10
2018-04-14T08:05:52.339Z,96.90
2018-04-14T08:08:27.729Z,96.40
2018-04-14T08:11:01.522Z,96.40
2018-04-14T08:13:35.341Z,96.30
2018-04-14T08:16:10.155Z,96.20
2018-04-14T08:18:44.694Z,95.40
2018-04-14T08:21:18.465Z,95.40
2018-04-14T08:23:53.058Z,94.70
2018-04-14T08:26:28.291Z,94.60
2018-04-14T08:29:02.874Z,91.70
2018-04-14T08:31:37.479Z,87.50
2018-04-14T08:34:13.044Z,82.50
2018-04-14T08:36:47.482Z,78.60
2018-04-14T08:39:22.070Z,73.50
2018-04-14T08:41:55.945Z,73.40
2018-04-14T08:44:30.539Z,66.60
2018-04-14T08:47:04.287Z,66.60
2018-04-14T08:49:38.716Z,60.80
2018-04-14T08:52:13.633Z,59.40
2018-04-14T08:54:47.390Z,59.20
2018-04-14T08:57:21.375Z,58.60
2018-04-14T08:59:56.211Z,56.50
2018-04-14T09:02:29.955Z,56.70
2018-04-14T09:05:03.768Z,59.50
2018-04-14T09:07:38.361Z,58.30
2018-04-14T09:10:12.261Z,58.20
2018-04-14T09:12:45.977Z,56.40
2018-04-14T09:15:20.567Z,61.60
2018-04-14T09:17:56.470Z,61.90
2018-04-14T09:20:30.176Z,61.80
2018-04-14T09:23:04.077Z,57.50
2018-04-14T09:25:38.570Z,54.30
2018-04-14T09:28:12.268Z,54.30
2018-04-14T09:30:46.877Z,46.50
2018-04-14T09:33:20.626Z,46.30
2018-04-14T09:35:54.474Z,47.70
2018-04-14T09:38:29.179Z,46.60
2018-04-14T09:41:02.971Z,46.50
2018-04-14T09:43:37.574Z,42.60
2018-04-14T09:46:11.393Z,42.50
2018-04-14T09:48:45.210Z,42.50
2018-04-14T09:51:19.800Z,43.50
2018-04-14T09:53:53.771Z,43.60
2018-04-14T09:56:27.637Z,42.40
2018-04-14T09:59:01.622Z,41.00
2018-04-14T10:01:35.466Z,39.80
2018-04-14T10:04:09.265Z,40.50
2018-04-14T10:06:43.044Z,42.00
2018-04-14T10:09:16.903Z,41.80
2018-04-14T10:11:50.680Z,42.00
2018-04-14T10:14:24.701Z,39.30
2018-04-14T10:16:58.508Z,39.50
2018-04-14T10:19:33.104Z,40.10
2018-04-14T10:22:06.734Z,40.00
2018-04-14T10:24:40.494Z,42.00
2018-04-14T10:27:14.198Z,42.70
2018-04-14T10:29:47.913Z,42.20
2018-04-14T10:32:21.710Z,41.60
2018-04-14T10:34:56.701Z,41.20
2018-04-14T10:37:31.197Z,41.40
2018-04-14T10:40:04.998Z,41.40
2018-04-14T10:42:39.726Z,40.90
2018-04-14T10:45:13.564Z,40.90
2018-04-14T10:47:48.059Z,41.10
2018-04-14T10:50:21.757Z,41.00
2018-04-14T10:52:55.603Z,42.20
2018-04-14T10:55:29.322Z,42.90
2018-04-14T10:58:03.047Z,42.80
2018-04-14T11:00:36.886Z,43.00
2018-04-14T11:03:10.985Z,42.80
2018-04-14T11:05:44.670Z,42.40
2018-04-14T11:08:19.338Z,42.50
2018-04-14T11:10:53.596Z,42.50
2018-04-14T11:13:27.491Z,42.40
2018-04-14T11:16:01.308Z,42.80
2018-04-14T11:18:34.991Z,44.00
2018-04-14T11:21:08.856Z,45.80
2018-04-14T11:23:42.643Z,45.90
2018-04-14T11:26:17.520Z,45.90
2018-04-14T11:28:52.343Z,47.10
2018-04-14T11:31:26.937Z,47.20
2018-04-14T11:34:00.707Z,46.90
2018-04-14T11:36:35.391Z,45.20
2018-04-14T11:39:10.346Z,44.50
2018-04-14T11:41:45.931Z,43.60
2018-04-14T11:44:20.718Z,44.00
2018-04-14T11:46:54.512Z,43.90
2018-04-14T11:49:28.634Z,44.30
2018-04-14T11:52:04.331Z,42.40
2018-04-14T11:54:38.301Z,41.80
2018-04-14T11:57:12.100Z,42.90
2018-04-14T11:59:45.853Z,42.70
2018-04-14T12:02:19.693Z,43.30
2018-04-14T12:04:54.518Z,42.80
2018-04-14T12:07:28.321Z,42.80
2018-04-14T12:10:02.238Z,42.90
2018-04-14T12:12:36.152Z,42.80
2018-04-14T12:15:09.978Z,40.30
2018-04-14T12:17:43.913Z,41.10
2018-04-14T12:20:17.675Z,40.90
2018-04-14T12:22:52.274Z,40.50
2018-04-14T12:25:26.054Z,40.50
2018-04-14T12:28:00.607Z,41.60
2018-04-14T12:30:34.854Z,41.60
2018-04-14T12:33:08.568Z,40.80
2018-04-14T12:35:43.186Z,40.40
2018-04-14T12:38:17.754Z,40.40
2018-04-14T12:40:52.441Z,41.40
2018-04-14T12:43:27.029Z,41.40
2018-04-14T12:46:01.186Z,41.00
2018-04-14T12:48:34.888Z,41.40
2018-04-14T12:51:09.590Z,39.60
2018-04-14T12:53:43.419Z,39.50
2018-04-14T12:56:18.015Z,39.30
2018-04-14T12:58:51.844Z,39.20
2018-04-14T13:01:26.767Z,39.70
2018-04-14T13:04:00.580Z,39.00
2018-04-14T13:06:35.206Z,39.40
2018-04-14T13:09:09.030Z,39.40
2018-04-14T13:11:42.825Z,38.30
2018-04-14T13:14:17.451Z,39.90
2018-04-14T13:16:51.232Z,39.80
2018-04-14T13:19:25.042Z,41.70
2018-04-14T13:21:58.831Z,41.40
2018-04-14T13:24:32.711Z,41.00
2018-04-14T13:27:07.489Z,41.30
2018-04-14T13:29:42.006Z,40.80
2018-04-14T13:32:15.829Z,40.80
2018-04-14T13:34:50.442Z,40.90
2018-04-14T13:37:25.048Z,41.00
2018-04-14T13:39:59.592Z,41.30
2018-04-14T13:42:33.419Z,41.30
2018-04-14T13:45:07.923Z,40.90
2018-04-14T13:47:41.686Z,40.90
2018-04-14T13:50:16.152Z,41.30
2018-04-14T13:52:50.761Z,41.50
2018-04-14T13:55:24.618Z,42.10
2018-04-14T13:57:59.328Z,40.60
2018-04-14T14:00:33.837Z,41.10
2018-04-14T14:03:07.657Z,41.10
2018-04-14T14:05:43.247Z,40.00
2018-04-14T14:08:17.999Z,40.30
2018-04-14T14:10:51.802Z,40.30
2018-04-14T14:13:26.412Z,40.10
2018-04-14T14:16:00.253Z,40.00
2018-04-14T14:18:34.744Z,39.10
2018-04-14T14:21:09.806Z,39.50
2018-04-14T14:23:43.417Z,39.50
2018-04-14T14:26:18.142Z,40.00
2018-04-14T14:28:52.645Z,39.60
2018-04-14T14:31:26.783Z,39.50
2018-04-14T14:34:00.599Z,40.10
2018-04-14T14:36:34.490Z,38.10
2018-04-14T14:39:08.094Z,37.90
2018-04-14T14:41:42.612Z,38.10
2018-04-14T14:44:16.369Z,38.10
2018-04-14T14:46:50.375Z,37.20
2018-04-14T14:49:24.158Z,37.50
2018-04-14T14:51:59.009Z,38.80
2018-04-14T14:54:32.707Z,38.90
2018-04-14T14:57:06.613Z,38.60
2018-04-14T14:59:40.290Z,38.90
2018-04-14T15:02:14.918Z,39.10
2018-04-14T15:04:48.764Z,39.20
2018-04-14T15:07:23.241Z,40.00
2018-04-14T15:09:57.832Z,39.90
2018-04-14T15:12:31.834Z,40.00
2018-04-14T15:15:06.371Z,40.10
2018-04-14T15:17:41.006Z,40.20
2018-04-14T15:20:14.787Z,40.20
2018-04-14T15:22:49.431Z,40.40
2018-04-14T15:25:23.255Z,40.40
2018-04-14T15:27:57.471Z,40.30
2018-04-14T15:30:31.874Z,40.50
2018-04-14T15:33:06.721Z,40.80
2018-04-14T15:35:40.490Z,40.90
2018-04-14T15:38:14.361Z,41.40
2018-04-14T15:40:48.938Z,41.20
2018-04-14T15:43:22.768Z,41.20
2018-04-14T15:45:56.555Z,41.50
2018-04-14T15:48:30.275Z,41.40
2018-04-14T15:51:05.004Z,41.90
2018-04-14T15:53:38.882Z,41.90
2018-04-14T15:56:12.547Z,42.20
2018-04-14T15:58:46.493Z,42.30
2018-04-14T16:01:21.038Z,43.80
2018-04-14T16:03:54.909Z,44.20
2018-04-14T16:06:29.782Z,44.10
2018-04-14T16:09:03.550Z,44.10
2018-04-14T16:11:37.712Z,44.00
2018-04-14T16:14:12.217Z,44.30
2018-04-14T16:16:46.021Z,44.20
2018-04-14T16:19:19.827Z,44.60
2018-04-14T16:21:54.650Z,45.20
2018-04-14T16:24:28.348Z,45.10
2018-04-14T16:27:02.796Z,45.30
2018-04-14T16:29:36.602Z,45.30
2018-04-14T16:32:11.215Z,44.70
2018-04-14T16:34:45.818Z,44.00
2018-04-14T16:37:19.658Z,44.00
2018-04-14T16:39:54.284Z,44.80
2018-04-14T16:42:28.789Z,45.60
2018-04-14T16:45:02.564Z,45.80
2018-04-14T16:47:36.383Z,45.80
2018-04-14T16:50:10.818Z,46.90
2018-04-14T16:52:44.636Z,47.40
2018-04-14T16:55:19.261Z,46.60
2018-04-14T16:57:53.806Z,47.00
2018-04-14T17:00:27.500Z,47.40
2018-04-14T17:03:01.489Z,46.70
2018-04-14T17:05:36.094Z,47.90
2018-04-14T17:08:09.896Z,47.40
2018-04-14T17:10:44.239Z,45.70
2018-04-14T17:13:19.129Z,45.90
2018-04-14T17:15:53.718Z,45.60
2018-04-14T17:18:28.609Z,46.30
2018-04-14T17:21:02.414Z,46.30
2018-04-14T17:23:36.628Z,46.40
2018-04-14T17:26:10.419Z,47.10
2018-04-14T17:28:44.235Z,47.20
2018-04-14T17:31:17.971Z,47.80
2018-04-14T17:33:52.816Z,47.80
2018-04-14T17:36:26.670Z,47.90
2018-04-14T17:39:00.459Z,47.70
2018-04-14T17:41:35.118Z,48.50
2018-04-14T17:44:09.025Z,48.50
2018-04-14T17:46:43.486Z,49.00
2018-04-14T17:49:18.071Z,48.80
2018-04-14T17:51:51.805Z,48.80
2018-04-14T17:54:26.213Z,50.10
2018-04-14T17:57:00.054Z,50.00
2018-04-14T17:59:33.794Z,49.90
2018-04-14T18:02:08.458Z,51.10
2018-04-14T18:04:42.170Z,51.20
2018-04-14T18:07:16.023Z,52.00
2018-04-14T18:09:49.699Z,52.50
2018-04-14T18:12:23.471Z,53.50
2018-04-14T18:14:57.306Z,53.40
2018-04-14T18:17:31.926Z,56.80
2018-04-14T18:20:06.211Z,56.90
2018-04-14T18:22:39.933Z,59.00
2018-04-14T18:25:13.770Z,59.30
2018-04-14T18:27:47.599Z,62.90
2018-04-14T18:30:21.310Z,64.50
2018-04-14T18:32:55.065Z,67.30
2018-04-14T18:35:29.028Z,69.50
2018-04-14T18:38:02.976Z,70.00
2018-04-14T18:40:36.697Z,71.00
2018-04-14T18:43:10.469Z,70.50
2018-04-14T18:45:44.298Z,70.20
2018-04-14T18:48:18.150Z,71.90
2018-04-14T18:50:51.888Z,74.60
2018-04-14T18:53:26.537Z,76.50
2018-04-14T18:56:01.141Z,78.00
2018-04-14T18:58:35.669Z,77.90
2018-04-14T19:01:09.375Z,77.90
2018-04-14T19:03:43.182Z,79.10
2018-04-14T19:06:16.957Z,80.00
2018-04-14T19:08:51.831Z,81.10
2018-04-14T19:11:25.535Z,80.80
2018-04-14T19:13:59.159Z,81.70
2018-04-14T19:16:32.974Z,83.40
2018-04-14T19:19:06.768Z,83.90
2018-04-14T19:21:40.984Z,84.20
2018-04-14T19:24:14.741Z,84.90
2018-04-14T19:26:48.614Z,85.50
2018-04-14T19:29:22.406Z,85.90
2018-04-14T19:31:57.012Z,86.00
2018-04-14T19:34:30.887Z,86.00
2018-04-14T19:37:04.864Z,86.70
2018-04-14T19:39:38.634Z,86.70
2018-04-14T19:42:12.502Z,87.10
2018-04-14T19:44:46.699Z,87.00
2018-04-14T19:47:20.494Z,87.00
2018-04-14T19:49:54.329Z,87.20
2018-04-14T19:52:28.197Z,88.00
2018-04-14T19:55:01.999Z,87.60
2018-04-14T19:57:36.590Z,89.50
2018-04-14T20:00:11.208Z,90.00
2018-04-14T20:02:44.972Z,89.40
2018-04-14T20:05:18.856Z,89.80
2018-04-14T20:07:52.653Z,90.20
2018-04-14T20:10:26.478Z,90.50
2018-04-14T20:13:00.272Z,90.80
2018-04-14T20:15:34.875Z,91.40
2018-04-14T20:18:08.653Z,91.40
2018-04-14T20:20:42.554Z,91.50
2018-04-14T20:23:16.510Z,91.80
2018-04-14T20:25:50.311Z,91.70
2018-04-14T20:28:24.158Z,91.50
2018-04-14T20:30:58.035Z,91.40
2018-04-14T20:33:31.838Z,91.40
2018-04-14T20:36:08.511Z,91.60
2018-04-14T20:38:45.760Z,91.50
2018-04-14T20:41:19.430Z,91.40
2018-04-14T20:43:53.218Z,91.50
2018-04-14T20:46:27.144Z,91.70
2018-04-14T20:49:00.958Z,91.90
2018-04-14T20:51:34.767Z,92.00
2018-04-14T20:54:08.679Z,92.00
2018-04-14T20:56:42.525Z,92.20
2018-04-14T20:59:16.452Z,92.40
